sensor_id;sensor_type;location;lat;lon;timestamp;P1;durP1;ratioP1;P2;durP2;ratioP2
48849;SDS011;63210;53.370;6.770;2024-03-23T00:52:37;32.40;;;6.40;;
48849;SDS011;63210;53.370;6.770;2024-03-23T00:55:03;25.40;;;4.85;;
48849;SDS011;63210;53.370;6.770;2024-03-23T00:57:28;28.47;;;4.73;;
48849;SDS011;63210;53.370;6.770;2024-03-23T00:59:53;33.30;;;5.50;;
48849;SDS011;63210;53.370;6.770;2024-03-23T01:02:19;30.38;;;5.03;;
48849;SDS011;63210;53.370;6.770;2024-03-23T01:04:44;34.70;;;5.13;;
48849;SDS011;63210;53.370;6.770;2024-03-23T01:07:09;26.27;;;6.23;;
48849;SDS011;63210;53.370;6.770;2024-03-23T01:09:35;22.73;;;4.50;;
48849;SDS011;63210;53.370;6.770;2024-03-23T01:12:03;27.77;;;4.90;;
48849;SDS011;63210;53.370;6.770;2024-03-23T01:14:29;58.03;;;6.38;;
48849;SDS011;63210;53.370;6.770;2024-03-23T01:16:54;31.52;;;5.40;;
48849;SDS011;63210;53.370;6.770;2024-03-23T01:19:20;36.07;;;7.00;;
48849;SDS011;63210;53.370;6.770;2024-03-23T01:21:45;26.80;;;6.00;;
48849;SDS011;63210;53.370;6.770;2024-03-23T01:24:10;27.77;;;5.47;;
48849;SDS011;63210;53.370;6.770;2024-03-23T01:26:36;37.78;;;6.80;;
48849;SDS011;63210;53.370;6.770;2024-03-23T01:29:02;30.70;;;5.00;;
48849;SDS011;63210;53.370;6.770;2024-03-23T01:31:27;40.50;;;5.78;;
48849;SDS011;63210;53.370;6.770;2024-03-23T01:33:52;30.10;;;5.07;;
48849;SDS011;63210;53.370;6.770;2024-03-23T01:36:18;40.35;;;5.93;;
48849;SDS011;63210;53.370;6.770;2024-03-23T01:38:43;35.85;;;7.15;;
48849;SDS011;63210;53.370;6.770;2024-03-23T01:41:08;31.92;;;5.57;;
48849;SDS011;63210;53.370;6.770;2024-03-23T01:43:33;29.37;;;5.53;;
48849;SDS011;63210;53.370;6.770;2024-03-23T01:45:59;33.50;;;6.03;;
48849;SDS011;63210;53.370;6.770;2024-03-23T01:48:24;29.85;;;5.47;;
48849;SDS011;63210;53.370;6.770;2024-03-23T01:50:49;28.95;;;6.25;;
48849;SDS011;63210;53.370;6.770;2024-03-23T01:53:15;31.33;;;6.95;;
48849;SDS011;63210;53.370;6.770;2024-03-23T01:55:42;27.25;;;4.95;;
48849;SDS011;63210;53.370;6.770;2024-03-23T01:58:07;28.00;;;5.18;;
48849;SDS011;63210;53.370;6.770;2024-03-23T02:00:33;29.23;;;6.07;;
48849;SDS011;63210;53.370;6.770;2024-03-23T02:02:58;31.65;;;7.05;;
48849;SDS011;63210;53.370;6.770;2024-03-23T02:05:23;34.30;;;5.95;;
48849;SDS011;63210;53.370;6.770;2024-03-23T02:07:49;36.03;;;5.95;;
48849;SDS011;63210;53.370;6.770;2024-03-23T02:10:14;34.67;;;6.05;;
48849;SDS011;63210;53.370;6.770;2024-03-23T02:12:40;33.10;;;6.55;;
48849;SDS011;63210;53.370;6.770;2024-03-23T02:15:05;21.77;;;5.45;;
48849;SDS011;63210;53.370;6.770;2024-03-23T02:17:31;25.75;;;5.68;;
48849;SDS011;63210;53.370;6.770;2024-03-23T02:19:57;22.77;;;5.30;;
48849;SDS011;63210;53.370;6.770;2024-03-23T02:22:22;30.87;;;4.97;;
48849;SDS011;63210;53.370;6.770;2024-03-23T02:24:47;33.28;;;5.38;;
48849;SDS011;63210;53.370;6.770;2024-03-23T02:27:12;23.80;;;5.30;;
48849;SDS011;63210;53.370;6.770;2024-03-23T02:29:38;32.90;;;5.90;;
48849;SDS011;63210;53.370;6.770;2024-03-23T02:32:03;31.08;;;5.88;;
48849;SDS011;63210;53.370;6.770;2024-03-23T02:34:28;26.70;;;5.80;;
48849;SDS011;63210;53.370;6.770;2024-03-23T02:36:54;27.25;;;5.00;;
48849;SDS011;63210;53.370;6.770;2024-03-23T02:39:19;25.20;;;5.93;;
48849;SDS011;63210;53.370;6.770;2024-03-23T02:41:44;28.88;;;5.22;;
48849;SDS011;63210;53.370;6.770;2024-03-23T02:44:09;25.98;;;5.25;;
48849;SDS011;63210;53.370;6.770;2024-03-23T02:46:37;25.60;;;5.25;;
48849;SDS011;63210;53.370;6.770;2024-03-23T02:49:02;32.85;;;6.18;;
48849;SDS011;63210;53.370;6.770;2024-03-23T02:51:28;24.30;;;4.93;;
48849;SDS011;63210;53.370;6.770;2024-03-23T02:53:53;26.53;;;5.67;;
48849;SDS011;63210;53.370;6.770;2024-03-23T02:56:19;29.33;;;5.80;;
48849;SDS011;63210;53.370;6.770;2024-03-23T02:58:44;26.10;;;4.97;;
48849;SDS011;63210;53.370;6.770;2024-03-23T03:01:09;27.45;;;5.80;;
48849;SDS011;63210;53.370;6.770;2024-03-23T03:03:34;17.85;;;4.47;;
48849;SDS011;63210;53.370;6.770;2024-03-23T03:06:00;21.53;;;5.53;;
48849;SDS011;63210;53.370;6.770;2024-03-23T03:08:25;27.75;;;5.05;;
48849;SDS011;63210;53.370;6.770;2024-03-23T03:10:50;26.60;;;5.10;;
48849;SDS011;63210;53.370;6.770;2024-03-23T03:13:16;30.02;;;4.95;;
48849;SDS011;63210;53.370;6.770;2024-03-23T03:15:42;28.70;;;5.00;;
48849;SDS011;63210;53.370;6.770;2024-03-23T03:18:08;25.42;;;5.30;;
48849;SDS011;63210;53.370;6.770;2024-03-23T03:20:33;29.23;;;4.72;;
48849;SDS011;63210;53.370;6.770;2024-03-23T03:22:59;20.38;;;4.53;;
48849;SDS011;63210;53.370;6.770;2024-03-23T03:25:25;30.55;;;4.35;;
48849;SDS011;63210;53.370;6.770;2024-03-23T03:27:50;24.17;;;5.47;;
48849;SDS011;63210;53.370;6.770;2024-03-23T03:30:15;25.90;;;4.67;;
48849;SDS011;63210;53.370;6.770;2024-03-23T03:32:41;24.42;;;4.97;;
48849;SDS011;63210;53.370;6.770;2024-03-23T03:35:06;17.35;;;5.25;;
48849;SDS011;63210;53.370;6.770;2024-03-23T03:37:32;22.38;;;4.30;;
48849;SDS011;63210;53.370;6.770;2024-03-23T03:39:57;21.90;;;3.92;;
48849;SDS011;63210;53.370;6.770;2024-03-23T03:42:22;22.93;;;5.00;;
48849;SDS011;63210;53.370;6.770;2024-03-23T03:44:47;21.70;;;5.00;;
48849;SDS011;63210;53.370;6.770;2024-03-23T03:47:12;27.87;;;4.80;;
48849;SDS011;63210;53.370;6.770;2024-03-23T03:49:38;30.13;;;4.60;;
48849;SDS011;63210;53.370;6.770;2024-03-23T03:52:03;19.47;;;4.10;;
48849;SDS011;63210;53.370;6.770;2024-03-23T03:54:28;16.30;;;3.70;;
48849;SDS011;63210;53.370;6.770;2024-03-23T03:56:54;25.73;;;4.40;;
48849;SDS011;63210;53.370;6.770;2024-03-23T03:59:19;19.20;;;3.80;;
48849;SDS011;63210;53.370;6.770;2024-03-23T04:01:45;19.40;;;3.40;;
48849;SDS011;63210;53.370;6.770;2024-03-23T04:04:10;18.73;;;3.58;;
48849;SDS011;63210;53.370;6.770;2024-03-23T04:06:36;26.33;;;4.75;;
48849;SDS011;63210;53.370;6.770;2024-03-23T04:09:01;20.48;;;3.85;;
48849;SDS011;63210;53.370;6.770;2024-03-23T04:11:27;29.23;;;4.75;;
48849;SDS011;63210;53.370;6.770;2024-03-23T04:13:52;21.10;;;4.20;;
48849;SDS011;63210;53.370;6.770;2024-03-23T04:16:33;21.30;;;3.40;;
48849;SDS011;63210;53.370;6.770;2024-03-23T04:18:58;16.85;;;3.47;;
48849;SDS011;63210;53.370;6.770;2024-03-23T04:21:24;28.75;;;4.35;;
48849;SDS011;63210;53.370;6.770;2024-03-23T04:23:49;16.60;;;3.70;;
48849;SDS011;63210;53.370;6.770;2024-03-23T04:26:15;21.38;;;3.78;;
48849;SDS011;63210;53.370;6.770;2024-03-23T04:28:40;21.80;;;4.25;;
48849;SDS011;63210;53.370;6.770;2024-03-23T04:31:05;20.45;;;3.75;;
48849;SDS011;63210;53.370;6.770;2024-03-23T04:33:31;17.23;;;3.30;;
48849;SDS011;63210;53.370;6.770;2024-03-23T04:35:56;22.83;;;4.07;;
48849;SDS011;63210;53.370;6.770;2024-03-23T04:38:22;21.92;;;3.67;;
48849;SDS011;63210;53.370;6.770;2024-03-23T04:40:53;17.73;;;4.45;;
48849;SDS011;63210;53.370;6.770;2024-03-23T04:43:19;22.02;;;3.30;;
48849;SDS011;63210;53.370;6.770;2024-03-23T04:45:44;19.50;;;3.40;;
48849;SDS011;63210;53.370;6.770;2024-03-23T04:48:09;16.93;;;3.40;;
48849;SDS011;63210;53.370;6.770;2024-03-23T04:50:34;16.10;;;3.17;;
48849;SDS011;63210;53.370;6.770;2024-03-23T04:53:00;13.20;;;3.00;;
48849;SDS011;63210;53.370;6.770;2024-03-23T04:55:25;31.57;;;3.57;;
48849;SDS011;63210;53.370;6.770;2024-03-23T04:57:50;23.20;;;3.70;;
48849;SDS011;63210;53.370;6.770;2024-03-23T05:00:15;11.23;;;3.60;;
48849;SDS011;63210;53.370;6.770;2024-03-23T05:02:44;17.85;;;3.47;;
48849;SDS011;63210;53.370;6.770;2024-03-23T05:05:10;17.20;;;4.15;;
48849;SDS011;63210;53.370;6.770;2024-03-23T05:07:35;20.67;;;3.22;;
48849;SDS011;63210;53.370;6.770;2024-03-23T05:10:02;18.52;;;4.00;;
48849;SDS011;63210;53.370;6.770;2024-03-23T05:12:27;17.05;;;4.43;;
48849;SDS011;63210;53.370;6.770;2024-03-23T05:14:52;19.60;;;4.68;;
48849;SDS011;63210;53.370;6.770;2024-03-23T05:17:17;19.92;;;3.75;;
48849;SDS011;63210;53.370;6.770;2024-03-23T05:19:43;19.87;;;3.13;;
48849;SDS011;63210;53.370;6.770;2024-03-23T05:22:09;17.35;;;2.90;;
48849;SDS011;63210;53.370;6.770;2024-03-23T05:24:34;22.33;;;3.40;;
48849;SDS011;63210;53.370;6.770;2024-03-23T05:26:59;19.33;;;3.55;;
48849;SDS011;63210;53.370;6.770;2024-03-23T05:29:25;14.75;;;3.53;;
48849;SDS011;63210;53.370;6.770;2024-03-23T05:31:51;20.00;;;3.40;;
48849;SDS011;63210;53.370;6.770;2024-03-23T05:34:17;19.98;;;3.47;;
48849;SDS011;63210;53.370;6.770;2024-03-23T05:36:42;21.52;;;3.47;;
48849;SDS011;63210;53.370;6.770;2024-03-23T05:39:08;20.13;;;3.00;;
48849;SDS011;63210;53.370;6.770;2024-03-23T05:41:33;18.85;;;4.45;;
48849;SDS011;63210;53.370;6.770;2024-03-23T05:44:01;14.57;;;3.72;;
48849;SDS011;63210;53.370;6.770;2024-03-23T05:46:26;15.80;;;3.60;;
48849;SDS011;63210;53.370;6.770;2024-03-23T05:48:51;18.80;;;3.13;;
48849;SDS011;63210;53.370;6.770;2024-03-23T05:51:16;19.90;;;3.03;;
48849;SDS011;63210;53.370;6.770;2024-03-23T05:53:42;22.65;;;4.15;;
48849;SDS011;63210;53.370;6.770;2024-03-23T05:56:07;19.00;;;3.33;;
48849;SDS011;63210;53.370;6.770;2024-03-23T05:58:32;23.67;;;3.27;;
48849;SDS011;63210;53.370;6.770;2024-03-23T06:00:58;14.60;;;3.25;;
48849;SDS011;63210;53.370;6.770;2024-03-23T06:03:27;17.38;;;3.25;;
48849;SDS011;63210;53.370;6.770;2024-03-23T06:05:52;17.08;;;3.30;;
48849;SDS011;63210;53.370;6.770;2024-03-23T06:08:18;20.73;;;3.00;;
48849;SDS011;63210;53.370;6.770;2024-03-23T06:10:44;21.70;;;3.53;;
48849;SDS011;63210;53.370;6.770;2024-03-23T06:13:09;21.42;;;3.63;;
48849;SDS011;63210;53.370;6.770;2024-03-23T06:15:35;18.80;;;3.05;;
48849;SDS011;63210;53.370;6.770;2024-03-23T06:18:02;18.20;;;3.97;;
48849;SDS011;63210;53.370;6.770;2024-03-23T06:20:28;17.75;;;3.35;;
48849;SDS011;63210;53.370;6.770;2024-03-23T06:22:54;18.85;;;3.60;;
48849;SDS011;63210;53.370;6.770;2024-03-23T06:25:19;19.57;;;3.20;;
48849;SDS011;63210;53.370;6.770;2024-03-23T06:27:44;17.38;;;2.97;;
48849;SDS011;63210;53.370;6.770;2024-03-23T06:30:21;16.83;;;2.80;;
48849;SDS011;63210;53.370;6.770;2024-03-23T06:32:49;23.25;;;4.00;;
48849;SDS011;63210;53.370;6.770;2024-03-23T06:35:15;22.05;;;3.80;;
48849;SDS011;63210;53.370;6.770;2024-03-23T06:37:40;19.23;;;3.75;;
48849;SDS011;63210;53.370;6.770;2024-03-23T06:40:06;13.77;;;2.97;;
48849;SDS011;63210;53.370;6.770;2024-03-23T06:42:35;17.33;;;3.42;;
48849;SDS011;63210;53.370;6.770;2024-03-23T06:45:00;20.17;;;2.83;;
48849;SDS011;63210;53.370;6.770;2024-03-23T06:47:25;28.38;;;3.67;;
48849;SDS011;63210;53.370;6.770;2024-03-23T06:49:51;17.60;;;3.85;;
48849;SDS011;63210;53.370;6.770;2024-03-23T06:52:16;12.73;;;3.00;;
48849;SDS011;63210;53.370;6.770;2024-03-23T06:54:41;16.70;;;2.90;;
48849;SDS011;63210;53.370;6.770;2024-03-23T06:57:06;15.40;;;3.55;;
48849;SDS011;63210;53.370;6.770;2024-03-23T06:59:32;17.50;;;2.90;;
48849;SDS011;63210;53.370;6.770;2024-03-23T07:01:57;16.67;;;2.85;;
48849;SDS011;63210;53.370;6.770;2024-03-23T07:04:22;15.80;;;3.07;;
48849;SDS011;63210;53.370;6.770;2024-03-23T07:06:48;11.80;;;2.53;;
48849;SDS011;63210;53.370;6.770;2024-03-23T07:09:13;15.95;;;2.88;;
48849;SDS011;63210;53.370;6.770;2024-03-23T07:11:38;18.10;;;2.73;;
48849;SDS011;63210;53.370;6.770;2024-03-23T07:14:03;10.63;;;2.53;;
48849;SDS011;63210;53.370;6.770;2024-03-23T07:16:29;12.65;;;2.85;;
48849;SDS011;63210;53.370;6.770;2024-03-23T07:18:54;12.65;;;2.92;;
48849;SDS011;63210;53.370;6.770;2024-03-23T07:21:20;15.25;;;2.08;;
48849;SDS011;63210;53.370;6.770;2024-03-23T07:23:45;13.32;;;2.40;;
48849;SDS011;63210;53.370;6.770;2024-03-23T07:26:11;11.93;;;2.57;;
48849;SDS011;63210;53.370;6.770;2024-03-23T07:28:36;15.55;;;2.97;;
48849;SDS011;63210;53.370;6.770;2024-03-23T07:31:09;17.23;;;3.35;;
48849;SDS011;63210;53.370;6.770;2024-03-23T07:33:35;24.30;;;13.95;;
48849;SDS011;63210;53.370;6.770;2024-03-23T07:36:00;190.23;;;94.30;;
48849;SDS011;63210;53.370;6.770;2024-03-23T07:38:28;176.32;;;91.30;;
48849;SDS011;63210;53.370;6.770;2024-03-23T07:41:09;60.55;;;40.97;;
48849;SDS011;63210;53.370;6.770;2024-03-23T07:43:35;36.60;;;21.95;;
48849;SDS011;63210;53.370;6.770;2024-03-23T07:46:00;21.70;;;13.27;;
48849;SDS011;63210;53.370;6.770;2024-03-23T07:48:26;16.95;;;8.68;;
48849;SDS011;63210;53.370;6.770;2024-03-23T07:51:05;15.02;;;7.35;;
48849;SDS011;63210;53.370;6.770;2024-03-23T07:53:31;92.45;;;68.55;;
48849;SDS011;63210;53.370;6.770;2024-03-23T07:58:21;79.63;;;58.92;;
48849;SDS011;63210;53.370;6.770;2024-03-23T08:00:47;73.55;;;57.70;;
48849;SDS011;63210;53.370;6.770;2024-03-23T08:03:12;69.15;;;47.20;;
48849;SDS011;63210;53.370;6.770;2024-03-23T08:05:37;39.10;;;30.50;;
48849;SDS011;63210;53.370;6.770;2024-03-23T08:08:02;63.27;;;52.80;;
48849;SDS011;63210;53.370;6.770;2024-03-23T08:10:28;27.23;;;16.60;;
48849;SDS011;63210;53.370;6.770;2024-03-23T08:12:53;60.72;;;39.55;;
48849;SDS011;63210;53.370;6.770;2024-03-23T08:15:18;89.53;;;55.90;;
48849;SDS011;63210;53.370;6.770;2024-03-23T08:17:43;41.80;;;30.13;;
48849;SDS011;63210;53.370;6.770;2024-03-23T08:20:09;27.30;;;14.57;;
48849;SDS011;63210;53.370;6.770;2024-03-23T08:22:34;32.20;;;21.30;;
48849;SDS011;63210;53.370;6.770;2024-03-23T08:24:59;60.75;;;43.28;;
48849;SDS011;63210;53.370;6.770;2024-03-23T08:27:25;32.53;;;18.40;;
48849;SDS011;63210;53.370;6.770;2024-03-23T08:29:50;30.13;;;14.77;;
48849;SDS011;63210;53.370;6.770;2024-03-23T08:32:15;21.25;;;8.95;;
48849;SDS011;63210;53.370;6.770;2024-03-23T08:34:42;29.40;;;20.58;;
48849;SDS011;63210;53.370;6.770;2024-03-23T08:37:07;13.27;;;3.80;;
48849;SDS011;63210;53.370;6.770;2024-03-23T08:39:32;19.90;;;10.40;;
48849;SDS011;63210;53.370;6.770;2024-03-23T08:41:57;17.97;;;6.03;;
48849;SDS011;63210;53.370;6.770;2024-03-23T08:44:23;9.47;;;3.10;;
48849;SDS011;63210;53.370;6.770;2024-03-23T08:46:48;11.48;;;2.72;;
48849;SDS011;63210;53.370;6.770;2024-03-23T08:49:13;8.07;;;3.00;;
48849;SDS011;63210;53.370;6.770;2024-03-23T08:51:39;11.95;;;2.83;;
48849;SDS011;63210;53.370;6.770;2024-03-23T08:54:04;8.30;;;2.73;;
48849;SDS011;63210;53.370;6.770;2024-03-23T08:56:30;9.32;;;2.75;;
48849;SDS011;63210;53.370;6.770;2024-03-23T08:58:55;6.45;;;2.00;;
48849;SDS011;63210;53.370;6.770;2024-03-23T09:01:20;15.03;;;2.40;;
48849;SDS011;63210;53.370;6.770;2024-03-23T09:03:46;13.15;;;2.95;;
48849;SDS011;63210;53.370;6.770;2024-03-23T09:06:12;14.60;;;3.40;;
48849;SDS011;63210;53.370;6.770;2024-03-23T09:08:37;72.88;;;42.92;;
48849;SDS011;63210;53.370;6.770;2024-03-23T09:11:05;14.45;;;3.00;;
48849;SDS011;63210;53.370;6.770;2024-03-23T09:13:33;12.98;;;4.10;;
48849;SDS011;63210;53.370;6.770;2024-03-23T09:16:00;21.25;;;11.57;;
48849;SDS011;63210;53.370;6.770;2024-03-23T09:18:30;20.73;;;12.23;;
48849;SDS011;63210;53.370;6.770;2024-03-23T09:20:56;19.30;;;7.78;;
48849;SDS011;63210;53.370;6.770;2024-03-23T09:23:24;18.48;;;8.20;;
48849;SDS011;63210;53.370;6.770;2024-03-23T09:25:50;18.30;;;5.88;;
48849;SDS011;63210;53.370;6.770;2024-03-23T09:28:15;77.35;;;45.55;;
48849;SDS011;63210;53.370;6.770;2024-03-23T09:30:40;20.35;;;10.48;;
48849;SDS011;63210;53.370;6.770;2024-03-23T09:33:10;20.85;;;11.57;;
48849;SDS011;63210;53.370;6.770;2024-03-23T09:35:42;10.57;;;3.22;;
48849;SDS011;63210;53.370;6.770;2024-03-23T09:38:09;40.50;;;32.15;;
48849;SDS011;63210;53.370;6.770;2024-03-23T09:40:39;18.48;;;12.30;;
48849;SDS011;63210;53.370;6.770;2024-03-23T09:43:06;24.08;;;16.13;;
48849;SDS011;63210;53.370;6.770;2024-03-23T09:45:31;40.65;;;31.63;;
48849;SDS011;63210;53.370;6.770;2024-03-23T09:47:58;41.00;;;24.48;;
48849;SDS011;63210;53.370;6.770;2024-03-23T09:50:24;15.67;;;8.23;;
48849;SDS011;63210;53.370;6.770;2024-03-23T09:52:52;26.17;;;15.75;;
48849;SDS011;63210;53.370;6.770;2024-03-23T09:55:17;28.63;;;19.02;;
48849;SDS011;63210;53.370;6.770;2024-03-23T09:57:42;24.52;;;14.27;;
48849;SDS011;63210;53.370;6.770;2024-03-23T10:00:08;20.17;;;14.50;;
48849;SDS011;63210;53.370;6.770;2024-03-23T10:02:34;24.85;;;17.17;;
48849;SDS011;63210;53.370;6.770;2024-03-23T10:05:00;20.35;;;14.65;;
48849;SDS011;63210;53.370;6.770;2024-03-23T10:07:27;18.92;;;8.25;;
48849;SDS011;63210;53.370;6.770;2024-03-23T10:09:53;14.25;;;11.30;;
48849;SDS011;63210;53.370;6.770;2024-03-23T10:12:19;10.20;;;6.45;;
48849;SDS011;63210;53.370;6.770;2024-03-23T10:14:44;19.48;;;12.57;;
48849;SDS011;63210;53.370;6.770;2024-03-23T10:17:17;32.70;;;27.40;;
48849;SDS011;63210;53.370;6.770;2024-03-23T10:19:43;24.58;;;17.10;;
48849;SDS011;63210;53.370;6.770;2024-03-23T10:22:11;13.00;;;7.85;;
48849;SDS011;63210;53.370;6.770;2024-03-23T10:24:37;7.00;;;1.70;;
48849;SDS011;63210;53.370;6.770;2024-03-23T10:27:02;8.13;;;2.20;;
48849;SDS011;63210;53.370;6.770;2024-03-23T10:29:27;14.13;;;2.83;;
48849;SDS011;63210;53.370;6.770;2024-03-23T10:31:53;14.55;;;4.43;;
48849;SDS011;63210;53.370;6.770;2024-03-23T10:34:25;10.35;;;3.00;;
48849;SDS011;63210;53.370;6.770;2024-03-23T10:36:50;14.93;;;2.85;;
48849;SDS011;63210;53.370;6.770;2024-03-23T10:39:17;14.30;;;3.40;;
48849;SDS011;63210;53.370;6.770;2024-03-23T10:41:42;12.23;;;2.63;;
48849;SDS011;63210;53.370;6.770;2024-03-23T10:44:09;9.77;;;2.30;;
48849;SDS011;63210;53.370;6.770;2024-03-23T10:46:34;3.92;;;1.40;;
48849;SDS011;63210;53.370;6.770;2024-03-23T10:49:00;10.45;;;2.17;;
48849;SDS011;63210;53.370;6.770;2024-03-23T10:51:25;8.70;;;1.70;;
48849;SDS011;63210;53.370;6.770;2024-03-23T10:53:51;6.97;;;2.28;;
48849;SDS011;63210;53.370;6.770;2024-03-23T10:56:18;7.97;;;1.73;;
48849;SDS011;63210;53.370;6.770;2024-03-23T10:58:45;10.05;;;1.77;;
48849;SDS011;63210;53.370;6.770;2024-03-23T11:01:12;9.70;;;2.38;;
48849;SDS011;63210;53.370;6.770;2024-03-23T11:03:38;10.30;;;2.67;;
48849;SDS011;63210;53.370;6.770;2024-03-23T11:06:04;13.65;;;3.38;;
48849;SDS011;63210;53.370;6.770;2024-03-23T11:13:43;11.82;;;2.65;;
48849;SDS011;63210;53.370;6.770;2024-03-23T11:16:24;7.25;;;2.10;;
48849;SDS011;63210;53.370;6.770;2024-03-23T11:18:50;15.13;;;2.58;;
48849;SDS011;63210;53.370;6.770;2024-03-23T11:24:15;12.52;;;2.40;;
48849;SDS011;63210;53.370;6.770;2024-03-23T11:26:40;13.45;;;3.28;;
48849;SDS011;63210;53.370;6.770;2024-03-23T11:29:09;14.98;;;4.00;;
48849;SDS011;63210;53.370;6.770;2024-03-23T11:31:36;15.45;;;2.10;;
48849;SDS011;63210;53.370;6.770;2024-03-23T11:34:04;13.30;;;3.25;;
48849;SDS011;63210;53.370;6.770;2024-03-23T11:36:31;8.45;;;1.90;;
48849;SDS011;63210;53.370;6.770;2024-03-23T11:38:56;9.88;;;1.80;;
48849;SDS011;63210;53.370;6.770;2024-03-23T11:41:21;9.03;;;2.27;;
48849;SDS011;63210;53.370;6.770;2024-03-23T11:43:46;13.38;;;2.60;;
48849;SDS011;63210;53.370;6.770;2024-03-23T11:46:18;11.63;;;1.80;;
48849;SDS011;63210;53.370;6.770;2024-03-23T11:48:49;8.52;;;1.77;;
48849;SDS011;63210;53.370;6.770;2024-03-23T11:51:15;7.90;;;1.95;;
48849;SDS011;63210;53.370;6.770;2024-03-23T11:53:40;7.93;;;1.98;;
48849;SDS011;63210;53.370;6.770;2024-03-23T11:56:05;8.20;;;2.20;;
48849;SDS011;63210;53.370;6.770;2024-03-23T11:58:31;7.35;;;1.88;;
48849;SDS011;63210;53.370;6.770;2024-03-23T12:00:58;11.80;;;2.05;;
48849;SDS011;63210;53.370;6.770;2024-03-23T12:03:24;9.63;;;1.85;;
48849;SDS011;63210;53.370;6.770;2024-03-23T12:06:00;11.00;;;2.22;;
48849;SDS011;63210;53.370;6.770;2024-03-23T12:08:30;11.55;;;1.98;;
48849;SDS011;63210;53.370;6.770;2024-03-23T12:11:09;15.20;;;2.70;;
48849;SDS011;63210;53.370;6.770;2024-03-23T12:13:35;10.45;;;2.30;;
48849;SDS011;63210;53.370;6.770;2024-03-23T12:16:14;10.07;;;1.85;;
48849;SDS011;63210;53.370;6.770;2024-03-23T12:18:40;8.73;;;1.88;;
48849;SDS011;63210;53.370;6.770;2024-03-23T12:21:06;9.48;;;1.58;;
48849;SDS011;63210;53.370;6.770;2024-03-23T12:23:32;9.57;;;1.60;;
48849;SDS011;63210;53.370;6.770;2024-03-23T12:25:57;7.45;;;1.80;;
48849;SDS011;63210;53.370;6.770;2024-03-23T12:28:22;12.00;;;2.00;;
48849;SDS011;63210;53.370;6.770;2024-03-23T12:30:48;11.55;;;2.30;;
48849;SDS011;63210;53.370;6.770;2024-03-23T12:33:13;10.55;;;3.25;;
48849;SDS011;63210;53.370;6.770;2024-03-23T12:35:38;8.17;;;2.00;;
48849;SDS011;63210;53.370;6.770;2024-03-23T12:38:03;14.43;;;2.60;;
48849;SDS011;63210;53.370;6.770;2024-03-23T12:40:29;10.30;;;2.10;;
48849;SDS011;63210;53.370;6.770;2024-03-23T12:42:54;9.90;;;2.78;;
48849;SDS011;63210;53.370;6.770;2024-03-23T12:45:19;16.55;;;2.92;;
48849;SDS011;63210;53.370;6.770;2024-03-23T12:47:45;11.63;;;2.22;;
48849;SDS011;63210;53.370;6.770;2024-03-23T12:50:10;8.70;;;2.08;;
48849;SDS011;63210;53.370;6.770;2024-03-23T12:52:36;7.32;;;1.70;;
48849;SDS011;63210;53.370;6.770;2024-03-23T12:55:01;11.30;;;2.08;;
48849;SDS011;63210;53.370;6.770;2024-03-23T12:57:28;12.60;;;2.55;;
48849;SDS011;63210;53.370;6.770;2024-03-23T12:59:53;10.37;;;2.47;;
48849;SDS011;63210;53.370;6.770;2024-03-23T13:02:19;9.75;;;2.00;;
48849;SDS011;63210;53.370;6.770;2024-03-23T13:04:45;11.35;;;2.30;;
48849;SDS011;63210;53.370;6.770;2024-03-23T13:07:10;10.75;;;2.78;;
48849;SDS011;63210;53.370;6.770;2024-03-23T13:09:36;10.48;;;2.40;;
48849;SDS011;63210;53.370;6.770;2024-03-23T13:12:01;12.15;;;2.15;;
48849;SDS011;63210;53.370;6.770;2024-03-23T13:14:26;10.00;;;2.17;;
48849;SDS011;63210;53.370;6.770;2024-03-23T13:16:51;13.43;;;2.40;;
48849;SDS011;63210;53.370;6.770;2024-03-23T13:19:17;6.38;;;2.03;;
48849;SDS011;63210;53.370;6.770;2024-03-23T13:21:42;11.63;;;2.08;;
48849;SDS011;63210;53.370;6.770;2024-03-23T13:24:07;8.27;;;2.00;;
48849;SDS011;63210;53.370;6.770;2024-03-23T13:26:33;7.82;;;2.03;;
48849;SDS011;63210;53.370;6.770;2024-03-23T13:28:59;5.88;;;1.58;;
48849;SDS011;63210;53.370;6.770;2024-03-23T13:31:24;5.50;;;1.77;;
48849;SDS011;63210;53.370;6.770;2024-03-23T13:33:49;10.00;;;1.93;;
48849;SDS011;63210;53.370;6.770;2024-03-23T13:36:15;11.57;;;2.22;;
48849;SDS011;63210;53.370;6.770;2024-03-23T13:38:40;14.82;;;2.85;;
48849;SDS011;63210;53.370;6.770;2024-03-23T13:41:05;10.55;;;2.80;;
48849;SDS011;63210;53.370;6.770;2024-03-23T13:43:31;12.32;;;3.70;;
48849;SDS011;63210;53.370;6.770;2024-03-23T13:45:57;12.83;;;3.03;;
48849;SDS011;63210;53.370;6.770;2024-03-23T13:48:23;14.63;;;3.30;;
48849;SDS011;63210;53.370;6.770;2024-03-23T13:51:01;12.07;;;2.50;;
48849;SDS011;63210;53.370;6.770;2024-03-23T13:53:27;13.65;;;2.65;;
48849;SDS011;63210;53.370;6.770;2024-03-23T13:55:52;13.32;;;2.70;;
48849;SDS011;63210;53.370;6.770;2024-03-23T13:58:18;12.23;;;3.53;;
48849;SDS011;63210;53.370;6.770;2024-03-23T14:00:43;15.30;;;3.08;;
48849;SDS011;63210;53.370;6.770;2024-03-23T14:03:12;15.25;;;2.67;;
48849;SDS011;63210;53.370;6.770;2024-03-23T14:05:37;15.00;;;2.30;;
48849;SDS011;63210;53.370;6.770;2024-03-23T14:08:04;11.93;;;2.63;;
48849;SDS011;63210;53.370;6.770;2024-03-23T14:10:30;7.90;;;1.90;;
48849;SDS011;63210;53.370;6.770;2024-03-23T14:12:55;12.00;;;2.40;;
48849;SDS011;63210;53.370;6.770;2024-03-23T14:15:21;8.43;;;2.22;;
48849;SDS011;63210;53.370;6.770;2024-03-23T14:17:46;13.60;;;2.72;;
48849;SDS011;63210;53.370;6.770;2024-03-23T14:20:12;12.07;;;2.57;;
48849;SDS011;63210;53.370;6.770;2024-03-23T14:22:38;11.23;;;3.00;;
48849;SDS011;63210;53.370;6.770;2024-03-23T14:25:06;15.32;;;2.83;;
48849;SDS011;63210;53.370;6.770;2024-03-23T14:27:31;14.02;;;3.17;;
48849;SDS011;63210;53.370;6.770;2024-03-23T14:29:57;9.05;;;2.50;;
48849;SDS011;63210;53.370;6.770;2024-03-23T14:32:22;12.17;;;2.50;;
48849;SDS011;63210;53.370;6.770;2024-03-23T14:34:47;11.95;;;2.78;;
48849;SDS011;63210;53.370;6.770;2024-03-23T14:37:13;10.30;;;2.13;;
48849;SDS011;63210;53.370;6.770;2024-03-23T14:39:41;7.63;;;2.33;;
48849;SDS011;63210;53.370;6.770;2024-03-23T14:42:06;11.00;;;2.55;;
48849;SDS011;63210;53.370;6.770;2024-03-23T14:44:33;10.65;;;2.17;;
48849;SDS011;63210;53.370;6.770;2024-03-23T14:47:01;13.35;;;2.85;;
48849;SDS011;63210;53.370;6.770;2024-03-23T14:49:27;10.00;;;2.60;;
48849;SDS011;63210;53.370;6.770;2024-03-23T14:51:53;11.47;;;3.47;;
48849;SDS011;63210;53.370;6.770;2024-03-23T14:54:18;17.83;;;3.30;;
48849;SDS011;63210;53.370;6.770;2024-03-23T14:56:43;16.75;;;2.90;;
48849;SDS011;63210;53.370;6.770;2024-03-23T14:59:08;17.77;;;2.67;;
48849;SDS011;63210;53.370;6.770;2024-03-23T15:01:36;12.37;;;2.40;;
48849;SDS011;63210;53.370;6.770;2024-03-23T15:04:02;11.90;;;2.13;;
48849;SDS011;63210;53.370;6.770;2024-03-23T15:06:28;9.52;;;2.67;;
48849;SDS011;63210;53.370;6.770;2024-03-23T15:08:54;10.80;;;2.13;;
48849;SDS011;63210;53.370;6.770;2024-03-23T15:11:19;10.30;;;2.28;;
48849;SDS011;63210;53.370;6.770;2024-03-23T15:13:45;13.43;;;2.65;;
48849;SDS011;63210;53.370;6.770;2024-03-23T15:16:16;8.10;;;2.45;;
48849;SDS011;63210;53.370;6.770;2024-03-23T15:18:41;11.95;;;2.55;;
48849;SDS011;63210;53.370;6.770;2024-03-23T15:21:06;12.05;;;2.25;;
48849;SDS011;63210;53.370;6.770;2024-03-23T15:23:32;11.90;;;2.20;;
48849;SDS011;63210;53.370;6.770;2024-03-23T15:25:58;10.23;;;2.23;;
48849;SDS011;63210;53.370;6.770;2024-03-23T15:28:24;11.88;;;2.20;;